sensor_id;sensor_type;location;lat;lon;timestamp;P1;durP1;ratioP1;P2;durP2;ratioP2
3491;SDS011;1760;52.480;13.422;2023-05-06T00:00:17;9.70;;;5.47;;
3491;SDS011;1760;52.480;13.422;2023-05-06T00:02:44;6.30;;;4.40;;
3491;SDS011;1760;52.480;13.422;2023-05-06T00:05:12;5.63;;;3.93;;
3491;SDS011;1760;52.480;13.422;2023-05-06T00:07:42;6.63;;;4.13;;
3491;SDS011;1760;52.480;13.422;2023-05-06T00:10:10;7.40;;;3.83;;
3491;SDS011;1760;52.480;13.422;2023-05-06T00:12:40;5.53;;;3.80;;
3491;SDS011;1760;52.480;13.422;2023-05-06T00:15:07;11.50;;;4.30;;
3491;SDS011;1760;52.480;13.422;2023-05-06T00:17:37;4.77;;;3.80;;
3491;SDS011;1760;52.480;13.422;2023-05-06T00:20:05;11.73;;;3.63;;
3491;SDS011;1760;52.480;13.422;2023-05-06T00:22:33;15.53;;;5.00;;
3491;SDS011;1760;52.480;13.422;2023-05-06T00:25:00;6.90;;;4.53;;
3491;SDS011;1760;52.480;13.422;2023-05-06T00:27:27;13.30;;;4.70;;
3491;SDS011;1760;52.480;13.422;2023-05-06T00:29:55;5.87;;;3.97;;
3491;SDS011;1760;52.480;13.422;2023-05-06T00:32:22;12.50;;;4.87;;
3491;SDS011;1760;52.480;13.422;2023-05-06T00:34:51;9.37;;;4.90;;
3491;SDS011;1760;52.480;13.422;2023-05-06T00:37:18;7.57;;;4.73;;
3491;SDS011;1760;52.480;13.422;2023-05-06T00:39:45;6.43;;;3.10;;
3491;SDS011;1760;52.480;13.422;2023-05-06T00:42:12;9.00;;;4.00;;
3491;SDS011;1760;52.480;13.422;2023-05-06T00:44:39;5.10;;;3.43;;
3491;SDS011;1760;52.480;13.422;2023-05-06T00:47:06;6.30;;;4.03;;
3491;SDS011;1760;52.480;13.422;2023-05-06T00:49:34;6.90;;;3.60;;
3491;SDS011;1760;52.480;13.422;2023-05-06T00:52:03;6.80;;;3.80;;
3491;SDS011;1760;52.480;13.422;2023-05-06T00:54:30;5.00;;;4.47;;
3491;SDS011;1760;52.480;13.422;2023-05-06T00:56:57;4.17;;;2.80;;
3491;SDS011;1760;52.480;13.422;2023-05-06T00:59:25;6.60;;;3.60;;
3491;SDS011;1760;52.480;13.422;2023-05-06T01:01:52;4.90;;;3.77;;
3491;SDS011;1760;52.480;13.422;2023-05-06T01:04:20;8.63;;;4.10;;
3491;SDS011;1760;52.480;13.422;2023-05-06T01:06:48;8.03;;;4.03;;
3491;SDS011;1760;52.480;13.422;2023-05-06T01:09:23;13.30;;;4.10;;
3491;SDS011;1760;52.480;13.422;2023-05-06T01:11:58;6.33;;;4.87;;
3491;SDS011;1760;52.480;13.422;2023-05-06T01:14:34;10.20;;;5.20;;
3491;SDS011;1760;52.480;13.422;2023-05-06T01:17:06;5.57;;;4.20;;
3491;SDS011;1760;52.480;13.422;2023-05-06T01:19:36;7.47;;;4.00;;
3491;SDS011;1760;52.480;13.422;2023-05-06T01:22:05;4.83;;;3.20;;
3491;SDS011;1760;52.480;13.422;2023-05-06T01:24:35;7.37;;;4.40;;
3491;SDS011;1760;52.480;13.422;2023-05-06T01:27:02;8.00;;;3.77;;
3491;SDS011;1760;52.480;13.422;2023-05-06T01:29:29;5.27;;;3.63;;
3491;SDS011;1760;52.480;13.422;2023-05-06T01:31:58;13.70;;;4.00;;
3491;SDS011;1760;52.480;13.422;2023-05-06T01:34:27;5.50;;;4.10;;
3491;SDS011;1760;52.480;13.422;2023-05-06T01:36:57;5.27;;;3.30;;
3491;SDS011;1760;52.480;13.422;2023-05-06T01:39:32;9.47;;;4.23;;
3491;SDS011;1760;52.480;13.422;2023-05-06T01:42:01;8.73;;;4.07;;
3491;SDS011;1760;52.480;13.422;2023-05-06T01:44:30;4.03;;;3.67;;
3491;SDS011;1760;52.480;13.422;2023-05-06T01:46:59;6.30;;;3.80;;
3491;SDS011;1760;52.480;13.422;2023-05-06T01:49:32;5.80;;;3.93;;
3491;SDS011;1760;52.480;13.422;2023-05-06T01:51:59;3.90;;;3.40;;
3491;SDS011;1760;52.480;13.422;2023-05-06T01:54:27;11.50;;;5.60;;
3491;SDS011;1760;52.480;13.422;2023-05-06T01:56:55;5.33;;;3.90;;
3491;SDS011;1760;52.480;13.422;2023-05-06T01:59:23;5.67;;;3.30;;
3491;SDS011;1760;52.480;13.422;2023-05-06T02:01:50;5.70;;;3.90;;
3491;SDS011;1760;52.480;13.422;2023-05-06T02:04:17;8.47;;;4.50;;
3491;SDS011;1760;52.480;13.422;2023-05-06T02:06:45;7.93;;;4.93;;
3491;SDS011;1760;52.480;13.422;2023-05-06T02:09:12;8.07;;;4.30;;
3491;SDS011;1760;52.480;13.422;2023-05-06T02:11:39;6.63;;;4.00;;
3491;SDS011;1760;52.480;13.422;2023-05-06T02:14:06;6.57;;;3.93;;
3491;SDS011;1760;52.480;13.422;2023-05-06T02:16:35;4.93;;;3.63;;
3491;SDS011;1760;52.480;13.422;2023-05-06T02:19:02;5.60;;;4.43;;
3491;SDS011;1760;52.480;13.422;2023-05-06T02:21:30;5.33;;;3.50;;
3491;SDS011;1760;52.480;13.422;2023-05-06T02:23:57;7.67;;;4.23;;
3491;SDS011;1760;52.480;13.422;2023-05-06T02:26:24;6.50;;;3.50;;
3491;SDS011;1760;52.480;13.422;2023-05-06T02:28:51;16.23;;;4.47;;
3491;SDS011;1760;52.480;13.422;2023-05-06T02:31:19;7.50;;;4.93;;
3491;SDS011;1760;52.480;13.422;2023-05-06T02:33:47;4.67;;;4.03;;
3491;SDS011;1760;52.480;13.422;2023-05-06T02:36:14;6.00;;;4.53;;
3491;SDS011;1760;52.480;13.422;2023-05-06T02:38:41;6.40;;;4.13;;
3491;SDS011;1760;52.480;13.422;2023-05-06T02:41:12;6.23;;;3.07;;
3491;SDS011;1760;52.480;13.422;2023-05-06T02:43:41;5.27;;;3.03;;
3491;SDS011;1760;52.480;13.422;2023-05-06T02:46:08;6.57;;;3.77;;
3491;SDS011;1760;52.480;13.422;2023-05-06T02:48:35;4.80;;;3.30;;
3491;SDS011;1760;52.480;13.422;2023-05-06T02:51:04;8.37;;;6.30;;
3491;SDS011;1760;52.480;13.422;2023-05-06T02:53:31;7.87;;;3.73;;
3491;SDS011;1760;52.480;13.422;2023-05-06T02:55:58;14.03;;;5.00;;
3491;SDS011;1760;52.480;13.422;2023-05-06T02:58:25;7.87;;;4.40;;
3491;SDS011;1760;52.480;13.422;2023-05-06T03:00:54;8.33;;;3.27;;
3491;SDS011;1760;52.480;13.422;2023-05-06T03:03:22;5.63;;;3.50;;
3491;SDS011;1760;52.480;13.422;2023-05-06T03:05:49;8.00;;;3.70;;
3491;SDS011;1760;52.480;13.422;2023-05-06T03:08:19;6.33;;;3.60;;
3491;SDS011;1760;52.480;13.422;2023-05-06T03:10:46;6.37;;;3.73;;
3491;SDS011;1760;52.480;13.422;2023-05-06T03:13:14;6.50;;;4.20;;
3491;SDS011;1760;52.480;13.422;2023-05-06T03:15:41;6.63;;;3.53;;
3491;SDS011;1760;52.480;13.422;2023-05-06T03:18:08;5.07;;;3.57;;
3491;SDS011;1760;52.480;13.422;2023-05-06T03:20:36;5.43;;;4.20;;
3491;SDS011;1760;52.480;13.422;2023-05-06T03:23:03;4.03;;;3.63;;
3491;SDS011;1760;52.480;13.422;2023-05-06T03:25:31;6.90;;;3.90;;
3491;SDS011;1760;52.480;13.422;2023-05-06T03:28:03;4.60;;;3.53;;
3491;SDS011;1760;52.480;13.422;2023-05-06T03:30:30;6.03;;;3.50;;
3491;SDS011;1760;52.480;13.422;2023-05-06T03:32:59;5.00;;;4.50;;
3491;SDS011;1760;52.480;13.422;2023-05-06T03:35:26;10.00;;;4.50;;
3491;SDS011;1760;52.480;13.422;2023-05-06T03:37:53;11.40;;;4.40;;
3491;SDS011;1760;52.480;13.422;2023-05-06T03:40:20;11.77;;;3.13;;
3491;SDS011;1760;52.480;13.422;2023-05-06T03:42:49;5.30;;;3.57;;
3491;SDS011;1760;52.480;13.422;2023-05-06T03:45:16;5.40;;;2.80;;
3491;SDS011;1760;52.480;13.422;2023-05-06T03:47:43;4.60;;;3.77;;
3491;SDS011;1760;52.480;13.422;2023-05-06T03:50:10;6.40;;;3.80;;
3491;SDS011;1760;52.480;13.422;2023-05-06T03:52:38;6.63;;;3.40;;
3491;SDS011;1760;52.480;13.422;2023-05-06T03:55:05;3.67;;;2.93;;
3491;SDS011;1760;52.480;13.422;2023-05-06T03:57:32;8.03;;;3.80;;
3491;SDS011;1760;52.480;13.422;2023-05-06T04:00:01;7.27;;;4.03;;
3491;SDS011;1760;52.480;13.422;2023-05-06T04:02:30;9.13;;;4.50;;
3491;SDS011;1760;52.480;13.422;2023-05-06T04:04:57;6.17;;;3.70;;
3491;SDS011;1760;52.480;13.422;2023-05-06T04:07:25;8.03;;;4.57;;
3491;SDS011;1760;52.480;13.422;2023-05-06T04:09:52;6.70;;;3.70;;
3491;SDS011;1760;52.480;13.422;2023-05-06T04:12:19;13.77;;;3.13;;
3491;SDS011;1760;52.480;13.422;2023-05-06T04:14:46;13.93;;;4.60;;
3491;SDS011;1760;52.480;13.422;2023-05-06T04:17:16;6.27;;;3.90;;
3491;SDS011;1760;52.480;13.422;2023-05-06T04:19:43;9.50;;;4.57;;
3491;SDS011;1760;52.480;13.422;2023-05-06T04:22:11;13.43;;;5.40;;
3491;SDS011;1760;52.480;13.422;2023-05-06T04:24:38;5.63;;;3.30;;
3491;SDS011;1760;52.480;13.422;2023-05-06T04:27:06;7.30;;;4.27;;
3491;SDS011;1760;52.480;13.422;2023-05-06T04:29:33;6.50;;;4.63;;
3491;SDS011;1760;52.480;13.422;2023-05-06T04:32:01;6.87;;;4.50;;
3491;SDS011;1760;52.480;13.422;2023-05-06T04:34:30;4.80;;;3.30;;
3491;SDS011;1760;52.480;13.422;2023-05-06T04:36:57;6.17;;;3.27;;
3491;SDS011;1760;52.480;13.422;2023-05-06T04:39:26;7.13;;;5.00;;
3491;SDS011;1760;52.480;13.422;2023-05-06T04:41:53;4.57;;;3.70;;
3491;SDS011;1760;52.480;13.422;2023-05-06T04:44:20;9.10;;;3.43;;
3491;SDS011;1760;52.480;13.422;2023-05-06T04:46:48;5.93;;;3.57;;
3491;SDS011;1760;52.480;13.422;2023-05-06T04:49:15;13.93;;;3.87;;
3491;SDS011;1760;52.480;13.422;2023-05-06T04:51:45;6.60;;;3.40;;
3491;SDS011;1760;52.480;13.422;2023-05-06T04:54:12;6.33;;;3.60;;
3491;SDS011;1760;52.480;13.422;2023-05-06T04:56:39;7.23;;;4.20;;
3491;SDS011;1760;52.480;13.422;2023-05-06T04:59:08;5.07;;;4.57;;
3491;SDS011;1760;52.480;13.422;2023-05-06T05:01:35;10.53;;;3.90;;
3491;SDS011;1760;52.480;13.422;2023-05-06T05:04:02;8.00;;;4.03;;
3491;SDS011;1760;52.480;13.422;2023-05-06T05:06:29;6.07;;;4.97;;
3491;SDS011;1760;52.480;13.422;2023-05-06T05:08:58;8.20;;;4.13;;
3491;SDS011;1760;52.480;13.422;2023-05-06T05:11:25;8.20;;;4.63;;
3491;SDS011;1760;52.480;13.422;2023-05-06T05:13:52;6.90;;;3.43;;
3491;SDS011;1760;52.480;13.422;2023-05-06T05:16:21;5.53;;;3.67;;
3491;SDS011;1760;52.480;13.422;2023-05-06T05:18:50;7.40;;;5.10;;
3491;SDS011;1760;52.480;13.422;2023-05-06T05:21:17;5.53;;;4.93;;
3491;SDS011;1760;52.480;13.422;2023-05-06T05:23:45;7.03;;;4.80;;
3491;SDS011;1760;52.480;13.422;2023-05-06T05:26:13;5.73;;;3.67;;
3491;SDS011;1760;52.480;13.422;2023-05-06T05:28:40;4.63;;;3.40;;
3491;SDS011;1760;52.480;13.422;2023-05-06T05:31:08;5.20;;;2.70;;
3491;SDS011;1760;52.480;13.422;2023-05-06T05:33:35;6.30;;;4.10;;
3491;SDS011;1760;52.480;13.422;2023-05-06T05:36:02;12.47;;;4.13;;
3491;SDS011;1760;52.480;13.422;2023-05-06T05:38:30;4.43;;;3.47;;
3491;SDS011;1760;52.480;13.422;2023-05-06T05:40:57;10.13;;;3.37;;
3491;SDS011;1760;52.480;13.422;2023-05-06T05:43:25;6.33;;;3.90;;
3491;SDS011;1760;52.480;13.422;2023-05-06T05:45:54;7.20;;;4.70;;
3491;SDS011;1760;52.480;13.422;2023-05-06T05:48:21;5.70;;;3.80;;
3491;SDS011;1760;52.480;13.422;2023-05-06T05:50:48;11.00;;;2.83;;
3491;SDS011;1760;52.480;13.422;2023-05-06T05:53:15;19.93;;;3.13;;
3491;SDS011;1760;52.480;13.422;2023-05-06T05:55:42;11.17;;;4.40;;
3491;SDS011;1760;52.480;13.422;2023-05-06T05:58:09;8.07;;;4.53;;
3491;SDS011;1760;52.480;13.422;2023-05-06T06:00:38;6.10;;;4.30;;
3491;SDS011;1760;52.480;13.422;2023-05-06T06:03:05;10.57;;;3.63;;
3491;SDS011;1760;52.480;13.422;2023-05-06T06:05:32;3.63;;;3.30;;
3491;SDS011;1760;52.480;13.422;2023-05-06T06:07:59;6.67;;;5.07;;
3491;SDS011;1760;52.480;13.422;2023-05-06T06:10:26;5.73;;;3.80;;
3491;SDS011;1760;52.480;13.422;2023-05-06T06:12:54;11.17;;;4.00;;
3491;SDS011;1760;52.480;13.422;2023-05-06T06:15:21;6.07;;;4.10;;
3491;SDS011;1760;52.480;13.422;2023-05-06T06:17:50;4.60;;;3.67;;
3491;SDS011;1760;52.480;13.422;2023-05-06T06:20:18;11.77;;;4.53;;
3491;SDS011;1760;52.480;13.422;2023-05-06T06:22:45;4.80;;;3.57;;
3491;SDS011;1760;52.480;13.422;2023-05-06T06:25:12;8.70;;;5.10;;
3491;SDS011;1760;52.480;13.422;2023-05-06T06:27:40;6.37;;;3.70;;
3491;SDS011;1760;52.480;13.422;2023-05-06T06:30:07;5.93;;;4.03;;
3491;SDS011;1760;52.480;13.422;2023-05-06T06:32:35;6.70;;;4.20;;
3491;SDS011;1760;52.480;13.422;2023-05-06T06:35:03;7.33;;;4.00;;
3491;SDS011;1760;52.480;13.422;2023-05-06T06:37:33;7.03;;;4.13;;
3491;SDS011;1760;52.480;13.422;2023-05-06T06:40:00;6.70;;;4.47;;
3491;SDS011;1760;52.480;13.422;2023-05-06T06:42:27;6.87;;;4.10;;
3491;SDS011;1760;52.480;13.422;2023-05-06T06:44:54;4.80;;;4.17;;
3491;SDS011;1760;52.480;13.422;2023-05-06T06:47:21;8.47;;;4.80;;
3491;SDS011;1760;52.480;13.422;2023-05-06T06:49:48;8.00;;;4.20;;
3491;SDS011;1760;52.480;13.422;2023-05-06T06:52:17;7.40;;;5.20;;
3491;SDS011;1760;52.480;13.422;2023-05-06T06:54:44;10.60;;;4.57;;
3491;SDS011;1760;52.480;13.422;2023-05-06T06:57:11;10.57;;;4.13;;
3491;SDS011;1760;52.480;13.422;2023-05-06T06:59:38;4.70;;;4.20;;
3491;SDS011;1760;52.480;13.422;2023-05-06T07:02:05;4.40;;;3.63;;
3491;SDS011;1760;52.480;13.422;2023-05-06T07:04:32;5.87;;;4.53;;
3491;SDS011;1760;52.480;13.422;2023-05-06T07:07:00;8.30;;;5.47;;
3491;SDS011;1760;52.480;13.422;2023-05-06T07:09:28;5.23;;;3.70;;
3491;SDS011;1760;52.480;13.422;2023-05-06T07:11:55;8.23;;;3.97;;
3491;SDS011;1760;52.480;13.422;2023-05-06T07:14:22;5.50;;;3.80;;
3491;SDS011;1760;52.480;13.422;2023-05-06T07:16:50;9.23;;;5.27;;
3491;SDS011;1760;52.480;13.422;2023-05-06T07:19:17;5.07;;;3.77;;
3491;SDS011;1760;52.480;13.422;2023-05-06T07:21:44;6.57;;;4.37;;
3491;SDS011;1760;52.480;13.422;2023-05-06T07:24:11;7.07;;;4.30;;
3491;SDS011;1760;52.480;13.422;2023-05-06T07:26:40;5.97;;;4.70;;
3491;SDS011;1760;52.480;13.422;2023-05-06T07:29:07;9.00;;;4.67;;
3491;SDS011;1760;52.480;13.422;2023-05-06T07:31:34;4.47;;;3.90;;
3491;SDS011;1760;52.480;13.422;2023-05-06T07:34:01;13.77;;;5.70;;
3491;SDS011;1760;52.480;13.422;2023-05-06T07:36:28;5.33;;;4.40;;
3491;SDS011;1760;52.480;13.422;2023-05-06T07:38:59;8.00;;;4.40;;
3491;SDS011;1760;52.480;13.422;2023-05-06T07:41:26;17.60;;;4.77;;
3491;SDS011;1760;52.480;13.422;2023-05-06T07:43:55;7.27;;;4.33;;
3491;SDS011;1760;52.480;13.422;2023-05-06T07:46:21;6.87;;;5.63;;
3491;SDS011;1760;52.480;13.422;2023-05-06T07:48:49;9.27;;;5.93;;
3491;SDS011;1760;52.480;13.422;2023-05-06T07:51:16;6.80;;;4.77;;
3491;SDS011;1760;52.480;13.422;2023-05-06T07:53:43;5.50;;;4.30;;
3491;SDS011;1760;52.480;13.422;2023-05-06T07:56:10;6.87;;;5.77;;
3491;SDS011;1760;52.480;13.422;2023-05-06T07:58:38;6.13;;;4.97;;
3491;SDS011;1760;52.480;13.422;2023-05-06T08:01:06;6.93;;;5.93;;
3491;SDS011;1760;52.480;13.422;2023-05-06T08:03:33;5.80;;;4.33;;
3491;SDS011;1760;52.480;13.422;2023-05-06T08:06:01;8.80;;;4.93;;
3491;SDS011;1760;52.480;13.422;2023-05-06T08:08:28;6.00;;;4.23;;
3491;SDS011;1760;52.480;13.422;2023-05-06T08:13:22;9.40;;;6.30;;
3491;SDS011;1760;52.480;13.422;2023-05-06T08:15:50;8.17;;;6.70;;
3491;SDS011;1760;52.480;13.422;2023-05-06T08:18:18;6.90;;;5.97;;
3491;SDS011;1760;52.480;13.422;2023-05-06T08:20:46;29.47;;;14.33;;
3491;SDS011;1760;52.480;13.422;2023-05-06T08:23:13;14.23;;;5.80;;
3491;SDS011;1760;52.480;13.422;2023-05-06T08:25:40;6.13;;;5.40;;
3491;SDS011;1760;52.480;13.422;2023-05-06T08:28:07;11.07;;;5.67;;
3491;SDS011;1760;52.480;13.422;2023-05-06T08:30:36;8.33;;;5.77;;
3491;SDS011;1760;52.480;13.422;2023-05-06T08:33:03;9.17;;;6.30;;
3491;SDS011;1760;52.480;13.422;2023-05-06T08:35:32;10.50;;;5.97;;
3491;SDS011;1760;52.480;13.422;2023-05-06T08:38:02;11.13;;;6.57;;
3491;SDS011;1760;52.480;13.422;2023-05-06T08:40:29;11.70;;;6.73;;
3491;SDS011;1760;52.480;13.422;2023-05-06T08:42:57;9.30;;;5.47;;
3491;SDS011;1760;52.480;13.422;2023-05-06T08:45:28;10.67;;;7.53;;
3491;SDS011;1760;52.480;13.422;2023-05-06T08:47:55;7.83;;;5.70;;
3491;SDS011;1760;52.480;13.422;2023-05-06T08:50:22;8.47;;;6.77;;
3491;SDS011;1760;52.480;13.422;2023-05-06T08:52:51;7.23;;;6.20;;
3491;SDS011;1760;52.480;13.422;2023-05-06T08:55:18;7.67;;;6.40;;
3491;SDS011;1760;52.480;13.422;2023-05-06T08:57:45;12.50;;;6.40;;
3491;SDS011;1760;52.480;13.422;2023-05-06T09:00:14;11.70;;;6.80;;
3491;SDS011;1760;52.480;13.422;2023-05-06T09:02:41;10.53;;;6.70;;
3491;SDS011;1760;52.480;13.422;2023-05-06T09:05:08;9.63;;;7.17;;
3491;SDS011;1760;52.480;13.422;2023-05-06T09:07:36;11.10;;;6.63;;
3491;SDS011;1760;52.480;13.422;2023-05-06T09:10:08;8.20;;;6.40;;
3491;SDS011;1760;52.480;13.422;2023-05-06T09:12:38;6.63;;;5.23;;
3491;SDS011;1760;52.480;13.422;2023-05-06T09:15:07;9.73;;;7.00;;
3491;SDS011;1760;52.480;13.422;2023-05-06T09:17:35;7.33;;;6.57;;
3491;SDS011;1760;52.480;13.422;2023-05-06T09:20:02;9.03;;;5.80;;
3491;SDS011;1760;52.480;13.422;2023-05-06T09:22:33;9.47;;;7.07;;
3491;SDS011;1760;52.480;13.422;2023-05-06T09:25:03;10.90;;;6.50;;
3491;SDS011;1760;52.480;13.422;2023-05-06T09:27:33;9.70;;;6.47;;
3491;SDS011;1760;52.480;13.422;2023-05-06T09:30:02;7.70;;;5.90;;
3491;SDS011;1760;52.480;13.422;2023-05-06T09:32:30;9.23;;;5.37;;
3491;SDS011;1760;52.480;13.422;2023-05-06T09:34:58;11.47;;;6.80;;
3491;SDS011;1760;52.480;13.422;2023-05-06T09:37:25;11.13;;;6.07;;
3491;SDS011;1760;52.480;13.422;2023-05-06T09:39:53;8.27;;;5.77;;
3491;SDS011;1760;52.480;13.422;2023-05-06T09:42:21;9.60;;;5.13;;
3491;SDS011;1760;52.480;13.422;2023-05-06T09:44:51;7.73;;;5.10;;
3491;SDS011;1760;52.480;13.422;2023-05-06T09:47:19;8.77;;;6.00;;
3491;SDS011;1760;52.480;13.422;2023-05-06T09:49:47;6.23;;;5.27;;
3491;SDS011;1760;52.480;13.422;2023-05-06T09:52:14;8.23;;;5.33;;
3491;SDS011;1760;52.480;13.422;2023-05-06T09:54:43;7.90;;;5.33;;
3491;SDS011;1760;52.480;13.422;2023-05-06T09:57:12;6.10;;;4.60;;
3491;SDS011;1760;52.480;13.422;2023-05-06T09:59:42;4.83;;;4.00;;
3491;SDS011;1760;52.480;13.422;2023-05-06T10:02:12;9.57;;;5.27;;
3491;SDS011;1760;52.480;13.422;2023-05-06T10:04:40;8.30;;;5.03;;
3491;SDS011;1760;52.480;13.422;2023-05-06T10:07:08;7.13;;;4.17;;
3491;SDS011;1760;52.480;13.422;2023-05-06T10:09:37;6.50;;;4.27;;
3491;SDS011;1760;52.480;13.422;2023-05-06T10:12:05;5.63;;;4.70;;
3491;SDS011;1760;52.480;13.422;2023-05-06T10:14:32;4.17;;;3.73;;
3491;SDS011;1760;52.480;13.422;2023-05-06T10:17:00;7.00;;;5.20;;
3491;SDS011;1760;52.480;13.422;2023-05-06T10:19:31;9.40;;;4.97;;
3491;SDS011;1760;52.480;13.422;2023-05-06T10:22:00;6.70;;;4.90;;
3491;SDS011;1760;52.480;13.422;2023-05-06T10:24:45;4.17;;;3.70;;
3491;SDS011;1760;52.480;13.422;2023-05-06T10:27:13;9.23;;;5.67;;
3491;SDS011;1760;52.480;13.422;2023-05-06T10:29:45;5.90;;;4.33;;
3491;SDS011;1760;52.480;13.422;2023-05-06T10:32:13;5.57;;;4.43;;
3491;SDS011;1760;52.480;13.422;2023-05-06T10:34:53;6.80;;;5.30;;
3491;SDS011;1760;52.480;13.422;2023-05-06T10:37:22;7.40;;;5.00;;
3491;SDS011;1760;52.480;13.422;2023-05-06T10:39:52;7.03;;;5.20;;
3491;SDS011;1760;52.480;13.422;2023-05-06T10:42:23;5.90;;;4.87;;
3491;SDS011;1760;52.480;13.422;2023-05-06T10:44:56;6.80;;;4.50;;
3491;SDS011;1760;52.480;13.422;2023-05-06T10:47:23;6.07;;;4.93;;
3491;SDS011;1760;52.480;13.422;2023-05-06T10:52:46;4.63;;;3.53;;
3491;SDS011;1760;52.480;13.422;2023-05-06T10:55:26;6.23;;;4.00;;
3491;SDS011;1760;52.480;13.422;2023-05-06T10:57:54;5.63;;;4.43;;
3491;SDS011;1760;52.480;13.422;2023-05-06T11:00:22;6.20;;;3.90;;
3491;SDS011;1760;52.480;13.422;2023-05-06T11:02:53;7.47;;;5.20;;
3491;SDS011;1760;52.480;13.422;2023-05-06T11:05:22;6.10;;;4.60;;
3491;SDS011;1760;52.480;13.422;2023-05-06T11:07:50;6.70;;;4.33;;
3491;SDS011;1760;52.480;13.422;2023-05-06T11:10:30;7.57;;;5.57;;
3491;SDS011;1760;52.480;13.422;2023-05-06T11:12:58;10.33;;;4.67;;
3491;SDS011;1760;52.480;13.422;2023-05-06T11:15:32;5.80;;;4.53;;
3491;SDS011;1760;52.480;13.422;2023-05-06T11:26:32;7.10;;;4.07;;
3491;SDS011;1760;52.480;13.422;2023-05-06T11:29:00;5.10;;;3.73;;
3491;SDS011;1760;52.480;13.422;2023-05-06T11:31:28;4.83;;;3.50;;
3491;SDS011;1760;52.480;13.422;2023-05-06T11:33:56;5.93;;;3.43;;
3491;SDS011;1760;52.480;13.422;2023-05-06T11:36:25;4.60;;;3.50;;
3491;SDS011;1760;52.480;13.422;2023-05-06T11:38:56;3.90;;;3.00;;
3491;SDS011;1760;52.480;13.422;2023-05-06T11:41:23;6.20;;;4.47;;
3491;SDS011;1760;52.480;13.422;2023-05-06T11:43:52;3.87;;;3.20;;
3491;SDS011;1760;52.480;13.422;2023-05-06T11:46:19;4.27;;;3.10;;
3491;SDS011;1760;52.480;13.422;2023-05-06T11:48:47;4.20;;;3.63;;
3491;SDS011;1760;52.480;13.422;2023-05-06T11:51:14;3.40;;;3.07;;
3491;SDS011;1760;52.480;13.422;2023-05-06T11:53:41;6.00;;;3.17;;
3491;SDS011;1760;52.480;13.422;2023-05-06T11:56:08;4.33;;;3.50;;
3491;SDS011;1760;52.480;13.422;2023-05-06T11:58:36;10.30;;;4.30;;
3491;SDS011;1760;52.480;13.422;2023-05-06T12:01:04;5.60;;;3.20;;
3491;SDS011;1760;52.480;13.422;2023-05-06T12:03:32;4.40;;;2.97;;
3491;SDS011;1760;52.480;13.422;2023-05-06T12:05:59;4.50;;;3.47;;
3491;SDS011;1760;52.480;13.422;2023-05-06T12:08:28;5.50;;;3.17;;
3491;SDS011;1760;52.480;13.422;2023-05-06T12:10:57;3.30;;;2.87;;
3491;SDS011;1760;52.480;13.422;2023-05-06T12:13:25;4.23;;;3.07;;
3491;SDS011;1760;52.480;13.422;2023-05-06T12:15:54;3.00;;;2.60;;
3491;SDS011;1760;52.480;13.422;2023-05-06T12:18:23;4.87;;;3.87;;
3491;SDS011;1760;52.480;13.422;2023-05-06T12:20:52;3.97;;;3.10;;
3491;SDS011;1760;52.480;13.422;2023-05-06T12:23:19;5.37;;;3.57;;
3491;SDS011;1760;52.480;13.422;2023-05-06T12:25:58;4.33;;;3.90;;
3491;SDS011;1760;52.480;13.422;2023-05-06T12:28:26;3.23;;;2.80;;
3491;SDS011;1760;52.480;13.422;2023-05-06T12:30:53;4.83;;;3.57;;
3491;SDS011;1760;52.480;13.422;2023-05-06T12:33:20;6.20;;;2.77;;
3491;SDS011;1760;52.480;13.422;2023-05-06T12:35:49;11.50;;;4.60;;
3491;SDS011;1760;52.480;13.422;2023-05-06T12:38:18;4.73;;;4.30;;
3491;SDS011;1760;52.480;13.422;2023-05-06T12:40:51;4.27;;;3.80;;
3491;SDS011;1760;52.480;13.422;2023-05-06T12:43:26;4.60;;;2.87;;
3491;SDS011;1760;52.480;13.422;2023-05-06T12:46:02;7.87;;;2.97;;
3491;SDS011;1760;52.480;13.422;2023-05-06T12:48:30;5.53;;;3.47;;
3491;SDS011;1760;52.480;13.422;2023-05-06T12:50:59;6.67;;;3.00;;
3491;SDS011;1760;52.480;13.422;2023-05-06T12:53:29;4.00;;;3.30;;
3491;SDS011;1760;52.480;13.422;2023-05-06T12:55:57;3.07;;;2.60;;
3491;SDS011;1760;52.480;13.422;2023-05-06T12:58:24;3.17;;;2.87;;
3491;SDS011;1760;52.480;13.422;2023-05-06T13:00:51;3.50;;;2.90;;
3491;SDS011;1760;52.480;13.422;2023-05-06T13:03:18;5.67;;;4.53;;
3491;SDS011;1760;52.480;13.422;2023-05-06T13:05:45;4.03;;;3.07;;
3491;SDS011;1760;52.480;13.422;2023-05-06T13:08:15;5.57;;;3.00;;
3491;SDS011;1760;52.480;13.422;2023-05-06T13:10:42;5.20;;;3.47;;
3491;SDS011;1760;52.480;13.422;2023-05-06T13:13:09;3.07;;;2.80;;
3491;SDS011;1760;52.480;13.422;2023-05-06T13:15:37;5.23;;;2.83;;
3491;SDS011;1760;52.480;13.422;2023-05-06T13:18:04;3.90;;;3.30;;
3491;SDS011;1760;52.480;13.422;2023-05-06T13:20:31;3.23;;;2.60;;
3491;SDS011;1760;52.480;13.422;2023-05-06T13:22:59;6.00;;;2.80;;
3491;SDS011;1760;52.480;13.422;2023-05-06T13:25:27;4.30;;;3.23;;
3491;SDS011;1760;52.480;13.422;2023-05-06T13:27:54;3.00;;;2.70;;
3491;SDS011;1760;52.480;13.422;2023-05-06T13:30:22;3.43;;;2.83;;
3491;SDS011;1760;52.480;13.422;2023-05-06T13:32:49;2.90;;;2.53;;
3491;SDS011;1760;52.480;13.422;2023-05-06T13:35:16;2.53;;;1.80;;
3491;SDS011;1760;52.480;13.422;2023-05-06T13:37:43;4.53;;;3.13;;
3491;SDS011;1760;52.480;13.422;2023-05-06T13:40:11;3.17;;;1.90;;
3491;SDS011;1760;52.480;13.422;2023-05-06T13:42:40;3.60;;;2.23;;
3491;SDS011;1760;52.480;13.422;2023-05-06T13:45:07;2.37;;;1.77;;
3491;SDS011;1760;52.480;13.422;2023-05-06T13:47:35;2.80;;;2.47;;
3491;SDS011;1760;52.480;13.422;2023-05-06T13:50:02;5.83;;;2.73;;
3491;SDS011;1760;52.480;13.422;2023-05-06T13:52:35;6.13;;;2.57;;
3491;SDS011;1760;52.480;13.422;2023-05-06T13:55:02;4.53;;;2.70;;
3491;SDS011;1760;52.480;13.422;2023-05-06T13:57:30;3.10;;;2.30;;
3491;SDS011;1760;52.480;13.422;2023-05-06T13:59:58;2.17;;;1.97;;
3491;SDS011;1760;52.480;13.422;2023-05-06T14:02:26;3.03;;;2.20;;
3491;SDS011;1760;52.480;13.422;2023-05-06T14:04:53;3.30;;;2.90;;
3491;SDS011;1760;52.480;13.422;2023-05-06T14:07:20;3.70;;;3.03;;
3491;SDS011;1760;52.480;13.422;2023-05-06T14:09:47;2.33;;;2.07;;
3491;SDS011;1760;52.480;13.422;2023-05-06T14:12:14;2.93;;;1.97;;
3491;SDS011;1760;52.480;13.422;2023-05-06T14:14:42;3.40;;;3.10;;
3491;SDS011;1760;52.480;13.422;2023-05-06T14:17:10;3.13;;;2.80;;
3491;SDS011;1760;52.480;13.422;2023-05-06T14:19:37;5.53;;;2.63;;
3491;SDS011;1760;52.480;13.422;2023-05-06T14:22:04;4.30;;;2.77;;
3491;SDS011;1760;52.480;13.422;2023-05-06T14:24:32;4.33;;;2.97;;
3491;SDS011;1760;52.480;13.422;2023-05-06T14:26:59;3.70;;;2.93;;
3491;SDS011;1760;52.480;13.422;2023-05-06T14:29:26;4.37;;;3.10;;
3491;SDS011;1760;52.480;13.422;2023-05-06T14:31:53;2.60;;;2.40;;
3491;SDS011;1760;52.480;13.422;2023-05-06T14:34:22;2.27;;;2.07;;
3491;SDS011;1760;52.480;13.422;2023-05-06T14:36:49;3.77;;;2.60;;
3491;SDS011;1760;52.480;13.422;2023-05-06T14:39:16;2.97;;;2.67;;
3491;SDS011;1760;52.480;13.422;2023-05-06T14:41:45;3.23;;;2.20;;
3491;SDS011;1760;52.480;13.422;2023-05-06T14:44:12;2.37;;;2.17;;
3491;SDS011;1760;52.480;13.422;2023-05-06T14:46:39;2.30;;;1.80;;
3491;SDS011;1760;52.480;13.422;2023-05-06T14:49:06;3.00;;;2.37;;
3491;SDS011;1760;52.480;13.422;2023-05-06T14:51:35;2.27;;;2.00;;
3491;SDS011;1760;52.480;13.422;2023-05-06T14:54:02;3.53;;;2.60;;
3491;SDS011;1760;52.480;13.422;2023-05-06T14:56:29;3.93;;;2.43;;
3491;SDS011;1760;52.480;13.422;2023-05-06T14:58:56;6.20;;;3.00;;
3491;SDS011;1760;52.480;13.422;2023-05-06T15:01:23;3.50;;;2.83;;
3491;SDS011;1760;52.480;13.422;2023-05-06T15:03:51;3.70;;;2.93;;
3491;SDS011;1760;52.480;13.422;2023-05-06T15:06:18;3.63;;;2.13;;
3491;SDS011;1760;52.480;13.422;2023-05-06T15:08:46;2.50;;;2.30;;
3491;SDS011;1760;52.480;13.422;2023-05-06T15:11:13;2.50;;;1.87;;
3491;SDS011;1760;52.480;13.422;2023-05-06T15:13:41;1.83;;;1.47;;
3491;SDS011;1760;52.480;13.422;2023-05-06T15:16:08;2.90;;;2.50;;
3491;SDS011;1760;52.480;13.422;2023-05-06T15:18:35;3.60;;;2.20;;